Time,TemperatureF,DewpointF,PressureIn,WindDirection,WindDirectionDegrees,WindSpeedMPH,WindSpeedGustMPH,Humidity,HourlyPrecipIn,Conditions,Clouds,dailyrainin,SoftwareType,DateUTC
2013-06-14 00:01:00,53.5,50.0,29.64,ENE,75,8.0,8.0,88,0.13,,,0.00,Wunderground v.1.15,2013-06-14 04:01:00,
2013-06-14 00:02:00,53.5,50.0,29.65,ENE,64,2.0,8.0,88,0.13,,,0.00,Wunderground v.1.15,2013-06-14 04:02:00,
2013-06-14 00:05:00,53.6,50.1,29.64,NE,45,3.0,8.0,88,0.12,,,0.01,Wunderground v.1.15,2013-06-14 04:05:00,
2013-06-14 00:07:00,53.6,50.1,29.64,ENE,76,5.0,8.0,88,0.24,,,0.02,Wunderground v.1.15,2013-06-14 04:07:00,
2013-06-14 00:12:00,53.7,50.2,29.64,ENE,69,5.0,8.0,88,0.17,,,0.03,Wunderground v.1.15,2013-06-14 04:12:00,
2013-06-14 00:17:00,53.8,50.3,29.64,ENE,73,4.0,8.0,88,0.14,,,0.04,Wunderground v.1.15,2013-06-14 04:17:00,
2013-06-14 00:22:00,53.9,50.4,29.64,ENE,70,11.0,11.0,88,0.40,,,0.08,Wunderground v.1.15,2013-06-14 04:22:00,
2013-06-14 00:28:00,53.7,50.2,29.64,ENE,78,8.0,11.0,88,0.36,,,0.12,Wunderground v.1.15,2013-06-14 04:28:00,
2013-06-14 00:34:00,53.5,50.0,29.64,ENE,74,5.0,13.0,88,0.17,,,0.13,Wunderground v.1.15,2013-06-14 04:34:00,
2013-06-14 00:39:00,53.4,49.9,29.64,East,86,9.0,13.0,88,0.12,,,0.14,Wunderground v.1.15,2013-06-14 04:39:00,
2013-06-14 00:44:00,53.3,49.5,29.64,NE,52,5.0,10.0,87,0.17,,,0.16,Wunderground v.1.15,2013-06-14 04:44:00,
2013-06-14 00:50:00,53.3,49.8,29.64,East,88,5.0,6.0,88,0.11,,,0.17,Wunderground v.1.15,2013-06-14 04:50:00,
2013-06-14 00:55:00,53.2,49.7,29.64,East,80,7.0,10.0,88,0.15,,,0.18,Wunderground v.1.15,2013-06-14 04:55:00,
2013-06-14 01:00:00,53.2,49.7,29.64,ESE,111,3.0,8.0,88,0.23,,,0.20,Wunderground v.1.15,2013-06-14 05:00:00,
2013-06-14 01:05:00,53.1,49.6,29.64,ENE,57,15.0,15.0,88,0.31,,,0.22,Wunderground v.1.15,2013-06-14 05:05:00,
2013-06-14 01:11:00,52.9,49.4,29.63,NNE,28,8.0,11.0,88,0.26,,,0.24,Wunderground v.1.15,2013-06-14 05:11:00,
2013-06-14 01:17:00,52.7,49.2,29.63,ENE,72,7.0,13.0,88,0.29,,,0.26,Wunderground v.1.15,2013-06-14 05:17:00,
2013-06-14 01:22:00,52.6,48.8,29.63,NE,46,7.0,11.0,87,0.13,,,0.27,Wunderground v.1.15,2013-06-14 05:22:00,
2013-06-14 01:27:00,52.3,48.5,29.63,NE,34,6.0,13.0,87,0.18,,,0.28,Wunderground v.1.15,2013-06-14 05:27:00,
2013-06-14 01:32:00,52.1,48.3,29.63,East,84,2.0,9.0,87,0.21,,,0.30,Wunderground v.1.15,2013-06-14 05:32:00,
2013-06-14 01:38:00,52.0,48.3,29.63,ENE,67,9.0,9.0,87,0.25,,,0.32,Wunderground v.1.15,2013-06-14 05:38:00,
2013-06-14 01:43:00,52.0,48.6,29.62,NE,49,5.0,7.0,88,0.26,,,0.34,Wunderground v.1.15,2013-06-14 05:43:00,
2013-06-14 01:48:00,52.0,48.6,29.62,ENE,63,8.0,12.0,88,0.17,,,0.35,Wunderground v.1.15,2013-06-14 05:48:00,
2013-06-14 01:53:00,52.1,48.7,29.62,ENE,72,8.0,8.0,88,0.15,,,0.36,Wunderground v.1.15,2013-06-14 05:53:00,
2013-06-14 01:58:00,52.1,48.7,29.62,ENE,57,2.0,11.0,88,0.20,,,0.37,Wunderground v.1.15,2013-06-14 05:58:00,
2013-06-14 02:03:00,52.2,48.8,29.62,ENE,73,10.0,10.0,88,0.14,,,0.39,Wunderground v.1.15,2013-06-14 06:03:00,
2013-06-14 02:08:00,52.3,48.9,29.62,NE,48,9.0,13.0,88,0.18,,,0.40,Wunderground v.1.15,2013-06-14 06:08:00,
2013-06-14 02:13:00,52.4,48.9,29.62,NE,36,6.0,9.0,88,0.09,,,0.41,Wunderground v.1.15,2013-06-14 06:13:00,
2013-06-14 02:18:00,52.4,48.9,29.61,NNE,30,15.0,15.0,88,0.18,,,0.42,Wunderground v.1.15,2013-06-14 06:18:00,
2013-06-14 02:23:00,52.4,48.9,29.61,ENE,66,2.0,13.0,88,0.20,,,0.44,Wunderground v.1.15,2013-06-14 06:23:00,
2013-06-14 02:28:00,52.4,48.9,29.61,North,360,8.0,17.0,88,0.15,,,0.45,Wunderground v.1.15,2013-06-14 06:28:00,
2013-06-14 02:33:00,52.3,48.9,29.61,NE,53,1.0,13.0,88,0.16,,,0.46,Wunderground v.1.15,2013-06-14 06:33:00,
2013-06-14 02:38:00,52.3,48.9,29.61,ENE,57,5.0,13.0,88,0.24,,,0.48,Wunderground v.1.15,2013-06-14 06:38:00,
2013-06-14 02:43:00,52.3,48.9,29.61,NE,40,2.0,9.0,88,0.12,,,0.49,Wunderground v.1.15,2013-06-14 06:43:00,
2013-06-14 02:48:00,52.4,48.9,29.61,NNE,26,8.0,12.0,88,0.16,,,0.50,Wunderground v.1.15,2013-06-14 06:48:00,
2013-06-14 02:53:00,52.4,48.9,29.61,ENE,63,5.0,11.0,88,0.09,,,0.51,Wunderground v.1.15,2013-06-14 06:53:00,
2013-06-14 02:58:00,52.4,48.9,29.61,NNE,24,3.0,12.0,88,0.16,,,0.52,Wunderground v.1.15,2013-06-14 06:58:00,
2013-06-14 03:03:00,52.5,49.0,29.61,NE,50,5.0,13.0,88,0.18,,,0.54,Wunderground v.1.15,2013-06-14 07:03:00,
2013-06-14 03:08:00,52.6,49.1,29.61,ESE,106,2.0,13.0,88,0.12,,,0.55,Wunderground v.1.15,2013-06-14 07:08:00,
2013-06-14 03:13:00,52.7,49.5,29.62,NE,40,6.0,8.0,89,0.21,,,0.56,Wunderground v.1.15,2013-06-14 07:13:00,
2013-06-14 03:18:00,52.8,49.3,29.62,NE,49,5.0,11.0,88,0.24,,,0.58,Wunderground v.1.15,2013-06-14 07:18:00,
2013-06-14 03:23:00,52.8,49.3,29.62,NNE,32,5.0,7.0,88,0.14,,,0.59,Wunderground v.1.15,2013-06-14 07:23:00,
2013-06-14 03:28:00,52.9,49.4,29.62,NE,56,1.0,8.0,88,0.18,,,0.60,Wunderground v.1.15,2013-06-14 07:28:00,
2013-06-14 03:33:00,53.0,49.8,29.62,NE,45,6.0,8.0,89,0.27,,,0.62,Wunderground v.1.15,2013-06-14 07:33:00,
2013-06-14 03:38:00,53.0,49.8,29.62,NE,50,5.0,10.0,89,0.33,,,0.64,Wunderground v.1.15,2013-06-14 07:38:00,
2013-06-14 03:43:00,53.1,49.9,29.62,ENE,59,7.0,8.0,89,0.24,,,0.66,Wunderground v.1.15,2013-06-14 07:43:00,
2013-06-14 03:48:00,53.2,50.0,29.62,NE,38,8.0,11.0,89,0.15,,,0.67,Wunderground v.1.15,2013-06-14 07:48:00,
2013-06-14 03:53:00,53.2,50.0,29.62,NE,54,2.0,8.0,89,0.12,,,0.68,Wunderground v.1.15,2013-06-14 07:53:00,
2013-06-14 03:58:00,53.3,50.1,29.62,NNE,29,3.0,9.0,89,0.21,,,0.70,Wunderground v.1.15,2013-06-14 07:58:00,
2013-06-14 04:03:00,53.3,50.1,29.63,NE,55,8.0,8.0,89,0.21,,,0.72,Wunderground v.1.15,2013-06-14 08:03:00,
2013-06-14 04:08:00,53.4,50.2,29.62,NE,36,7.0,10.0,89,0.11,,,0.73,Wunderground v.1.15,2013-06-14 08:08:00,
2013-06-14 04:13:00,53.5,50.3,29.62,NE,53,4.0,9.0,89,0.17,,,0.74,Wunderground v.1.15,2013-06-14 08:13:00,
2013-06-14 04:18:00,53.5,50.3,29.62,NE,53,3.0,9.0,89,0.17,,,0.76,Wunderground v.1.15,2013-06-14 08:18:00,
2013-06-14 04:23:00,53.5,50.3,29.62,NE,45,4.0,10.0,89,0.11,,,0.76,Wunderground v.1.15,2013-06-14 08:23:00,
2013-06-14 04:28:00,53.5,50.3,29.63,NNE,28,5.0,10.0,89,0.10,,,0.77,Wunderground v.1.15,2013-06-14 08:28:00,
2013-06-14 04:33:00,53.6,50.4,29.62,ENE,59,0.0,9.0,89,0.12,,,0.78,Wunderground v.1.15,2013-06-14 08:33:00,
2013-06-14 04:38:00,53.6,50.4,29.62,East,82,3.0,10.0,89,0.08,,,0.79,Wunderground v.1.15,2013-06-14 08:38:00,
2013-06-14 04:43:00,53.6,50.4,29.63,ENE,58,10.0,10.0,89,0.17,,,0.80,Wunderground v.1.15,2013-06-14 08:43:00,
2013-06-14 04:48:00,53.6,50.4,29.63,ENE,67,2.0,10.0,89,0.12,,,0.81,Wunderground v.1.15,2013-06-14 08:48:00,
2013-06-14 04:53:00,53.6,50.4,29.63,NNE,25,2.0,8.0,89,0.12,,,0.82,Wunderground v.1.15,2013-06-14 08:53:00,
2013-06-14 04:58:00,53.6,50.4,29.63,East,88,1.0,8.0,89,0.09,,,0.83,Wunderground v.1.15,2013-06-14 08:58:00,
2013-06-14 05:03:00,53.6,50.4,29.63,NE,38,4.0,5.0,89,0.10,,,0.84,Wunderground v.1.15,2013-06-14 09:03:00,
2013-06-14 05:08:00,53.6,50.4,29.63,NE,53,3.0,7.0,89,0.08,,,0.85,Wunderground v.1.15,2013-06-14 09:08:00,
2013-06-14 05:13:00,53.6,50.4,29.63,NNE,23,4.0,9.0,89,0.22,,,0.86,Wunderground v.1.15,2013-06-14 09:13:00,
2013-06-14 05:18:00,53.5,50.3,29.63,East,96,3.0,10.0,89,0.11,,,0.87,Wunderground v.1.15,2013-06-14 09:18:00,
2013-06-14 05:23:00,53.4,50.2,29.63,NNE,17,0.0,10.0,89,0.15,,,0.88,Wunderground v.1.15,2013-06-14 09:23:00,
2013-06-14 05:28:00,53.4,50.2,29.63,East,80,7.0,10.0,89,0.10,,,0.89,Wunderground v.1.15,2013-06-14 09:28:00,
2013-06-14 05:33:00,53.4,50.2,29.63,NNW,345,5.0,9.0,89,0.13,,,0.90,Wunderground v.1.15,2013-06-14 09:33:00,
2013-06-14 05:38:00,53.4,50.2,29.64,NNE,32,5.0,15.0,89,0.08,,,0.91,Wunderground v.1.15,2013-06-14 09:38:00,
2013-06-14 05:43:00,53.3,50.1,29.64,ENE,67,4.0,12.0,89,0.17,,,0.92,Wunderground v.1.15,2013-06-14 09:43:00,
2013-06-14 05:48:00,53.3,50.1,29.64,NE,42,6.0,12.0,89,0.29,,,0.94,Wunderground v.1.15,2013-06-14 09:48:00,
2013-06-14 05:53:00,53.3,50.1,29.65,ENE,67,3.0,9.0,89,0.21,,,0.95,Wunderground v.1.15,2013-06-14 09:53:00,
2013-06-14 05:58:00,53.3,50.1,29.65,NE,34,7.0,9.0,89,0.13,,,0.97,Wunderground v.1.15,2013-06-14 09:58:00,
2013-06-14 06:03:00,53.3,50.1,29.65,NE,37,10.0,10.0,89,0.19,,,0.98,Wunderground v.1.15,2013-06-14 10:03:00,
2013-06-14 06:08:00,53.3,50.1,29.65,NE,49,2.0,12.0,89,0.09,,,0.99,Wunderground v.1.15,2013-06-14 10:08:00,
2013-06-14 06:13:00,53.3,50.1,29.65,North,360,3.0,8.0,89,0.13,,,1.00,Wunderground v.1.15,2013-06-14 10:13:00,
2013-06-14 06:19:00,53.3,50.1,29.65,NNE,21,2.0,9.0,89,0.13,,,1.01,Wunderground v.1.15,2013-06-14 10:19:00,
2013-06-14 06:24:00,53.3,50.1,29.65,NE,45,2.0,9.0,89,0.20,,,1.03,Wunderground v.1.15,2013-06-14 10:24:00,
2013-06-14 06:29:00,53.4,50.2,29.66,ENE,59,8.0,10.0,89,0.16,,,1.04,Wunderground v.1.15,2013-06-14 10:29:00,
2013-06-14 06:34:00,53.3,50.1,29.65,NE,46,3.0,8.0,89,0.20,,,1.06,Wunderground v.1.15,2013-06-14 10:34:00,
2013-06-14 06:39:00,53.3,50.1,29.65,ENE,61,3.0,8.0,89,0.13,,,1.07,Wunderground v.1.15,2013-06-14 10:39:00,
2013-06-14 06:44:00,53.3,50.1,29.65,NE,56,0.0,9.0,89,0.15,,,1.08,Wunderground v.1.15,2013-06-14 10:44:00,
2013-06-14 06:49:00,53.4,50.2,29.66,ENE,58,4.0,10.0,89,0.07,,,1.08,Wunderground v.1.15,2013-06-14 10:49:00,
2013-06-14 06:54:00,53.3,50.1,29.66,North,9,7.0,7.0,89,0.06,,,1.09,Wunderground v.1.15,2013-06-14 10:54:00,
2013-06-14 06:59:00,53.3,50.1,29.66,NNE,29,1.0,9.0,89,0.13,,,1.10,Wunderground v.1.15,2013-06-14 10:59:00,
2013-06-14 07:04:00,53.2,50.0,29.66,NE,45,3.0,8.0,89,0.11,,,1.11,Wunderground v.1.15,2013-06-14 11:04:00,
2013-06-14 07:09:00,53.2,50.0,29.66,North,10,4.0,9.0,89,0.13,,,1.12,Wunderground v.1.15,2013-06-14 11:09:00,
2013-06-14 07:14:00,53.1,49.9,29.66,NNE,28,2.0,8.0,89,0.19,,,1.14,Wunderground v.1.15,2013-06-14 11:14:00,
2013-06-14 07:19:00,53.1,49.9,29.67,NNE,28,5.0,8.0,89,0.14,,,1.15,Wunderground v.1.15,2013-06-14 11:19:00,
2013-06-14 07:24:00,53.1,49.9,29.67,North,360,2.0,6.0,89,0.19,,,1.16,Wunderground v.1.15,2013-06-14 11:24:00,
2013-06-14 07:29:00,53.0,49.8,29.67,NNE,24,4.0,10.0,89,0.19,,,1.18,Wunderground v.1.15,2013-06-14 11:29:00,
2013-06-14 07:34:00,53.0,49.8,29.68,NE,52,3.0,6.0,89,0.28,,,1.20,Wunderground v.1.15,2013-06-14 11:34:00,
2013-06-14 07:39:00,53.0,49.8,29.67,NE,53,5.0,9.0,89,0.33,,,1.22,Wunderground v.1.15,2013-06-14 11:39:00,
2013-06-14 07:44:00,53.0,49.8,29.67,North,350,6.0,7.0,89,0.20,,,1.24,Wunderground v.1.15,2013-06-14 11:44:00,
2013-06-14 07:49:00,53.0,49.8,29.68,NE,43,3.0,7.0,89,0.15,,,1.25,Wunderground v.1.15,2013-06-14 11:49:00,
2013-06-14 07:54:00,52.9,49.7,29.68,NNE,29,3.0,9.0,89,0.15,,,1.26,Wunderground v.1.15,2013-06-14 11:54:00,
2013-06-14 07:59:00,52.9,49.7,29.69,NE,47,1.0,10.0,89,0.10,,,1.27,Wunderground v.1.15,2013-06-14 11:59:00,
2013-06-14 08:04:00,52.9,49.7,29.68,NNE,17,4.0,7.0,89,0.14,,,1.28,Wunderground v.1.15,2013-06-14 12:04:00,
2013-06-14 08:09:00,52.9,49.7,29.69,NE,52,4.0,8.0,89,0.08,,,1.29,Wunderground v.1.15,2013-06-14 12:09:00,
2013-06-14 08:14:00,52.8,49.6,29.69,NE,56,2.0,7.0,89,0.11,,,1.30,Wunderground v.1.15,2013-06-14 12:14:00,
2013-06-14 08:19:00,52.9,49.7,29.69,NNE,32,5.0,10.0,89,0.10,,,1.30,Wunderground v.1.15,2013-06-14 12:19:00,
2013-06-14 08:24:00,52.9,49.7,29.68,NE,38,0.0,7.0,89,0.05,,,1.30,Wunderground v.1.15,2013-06-14 12:24:00,
2013-06-14 08:29:00,52.8,49.6,29.68,NNE,29,6.0,10.0,89,0.05,,,1.31,Wunderground v.1.15,2013-06-14 12:29:00,
2013-06-14 08:34:00,52.8,49.6,29.68,NE,42,5.0,10.0,89,0.12,,,1.32,Wunderground v.1.15,2013-06-14 12:34:00,
2013-06-14 08:39:00,52.9,49.7,29.68,ENE,63,3.0,10.0,89,0.07,,,1.32,Wunderground v.1.15,2013-06-14 12:39:00,
2013-06-14 08:44:00,52.9,49.7,29.69,NNE,19,1.0,6.0,89,0.07,,,1.33,Wunderground v.1.15,2013-06-14 12:44:00,
2013-06-14 08:49:00,53.0,49.8,29.69,ENE,73,1.0,7.0,89,0.09,,,1.34,Wunderground v.1.15,2013-06-14 12:49:00,
2013-06-14 08:54:00,53.1,49.9,29.68,NE,53,3.0,5.0,89,0.08,,,1.34,Wunderground v.1.15,2013-06-14 12:54:00,
2013-06-14 08:59:00,53.1,49.9,29.68,NNE,30,3.0,7.0,89,0.05,,,1.34,Wunderground v.1.15,2013-06-14 12:59:00,
2013-06-14 09:04:00,53.2,50.0,29.68,ENE,65,4.0,8.0,89,0.00,,,1.34,Wunderground v.1.15,2013-06-14 13:04:00,
2013-06-14 09:09:00,53.2,50.0,29.68,NE,44,8.0,8.0,89,0.00,,,1.34,Wunderground v.1.15,2013-06-14 13:09:00,
2013-06-14 09:14:00,53.3,50.1,29.68,ENE,75,2.0,9.0,89,0.00,,,1.35,Wunderground v.1.15,2013-06-14 13:14:00,
2013-06-14 09:19:00,53.5,50.3,29.68,East,82,5.0,9.0,89,0.00,,,1.35,Wunderground v.1.15,2013-06-14 13:19:00,
2013-06-14 09:24:00,53.6,50.4,29.68,NNE,28,3.0,8.0,89,0.00,,,1.35,Wunderground v.1.15,2013-06-14 13:24:00,
2013-06-14 09:29:00,53.7,50.5,29.68,NE,55,2.0,8.0,89,0.04,,,1.36,Wunderground v.1.15,2013-06-14 13:29:00,
2013-06-14 09:34:00,53.9,50.7,29.68,North,350,1.0,8.0,89,0.04,,,1.36,Wunderground v.1.15,2013-06-14 13:34:00,
2013-06-14 09:39:00,54.1,51.2,29.68,NE,34,4.0,8.0,90,0.04,,,1.36,Wunderground v.1.15,2013-06-14 13:39:00,
2013-06-14 09:44:00,54.2,51.3,29.68,NNE,14,3.0,10.0,90,0.00,,,1.36,Wunderground v.1.15,2013-06-14 13:44:00,
2013-06-14 09:49:00,54.5,51.3,29.68,NE,42,4.0,10.0,89,0.00,,,1.36,Wunderground v.1.15,2013-06-14 13:49:00,
2013-06-14 09:54:00,54.6,51.7,29.68,North,9,7.0,9.0,90,0.00,,,1.36,Wunderground v.1.15,2013-06-14 13:54:00,
2013-06-14 09:59:00,54.6,51.7,29.68,NE,37,9.0,10.0,90,0.00,,,1.36,Wunderground v.1.15,2013-06-14 13:59:00,
2013-06-14 10:04:00,54.6,51.7,29.67,North,9,3.0,8.0,90,0.00,,,1.36,Wunderground v.1.15,2013-06-14 14:04:00,
2013-06-14 10:09:00,54.8,51.9,29.67,NNW,334,5.0,8.0,90,0.00,,,1.36,Wunderground v.1.15,2013-06-14 14:09:00,
2013-06-14 10:14:00,55.2,52.3,29.67,NNE,28,4.0,8.0,90,0.00,,,1.36,Wunderground v.1.15,2013-06-14 14:14:00,
2013-06-14 10:19:00,55.6,52.7,29.67,NNE,22,4.0,8.0,90,0.00,,,1.36,Wunderground v.1.15,2013-06-14 14:19:00,
2013-06-14 10:24:00,55.8,52.9,29.67,NE,51,3.0,10.0,90,0.00,,,1.36,Wunderground v.1.15,2013-06-14 14:24:00,
2013-06-14 10:29:00,56.0,53.1,29.67,NNW,346,6.0,10.0,90,0.00,,,1.36,Wunderground v.1.15,2013-06-14 14:29:00,
2013-06-14 10:34:00,56.0,53.1,29.67,ENE,57,5.0,8.0,90,0.00,,,1.36,Wunderground v.1.15,2013-06-14 14:34:00,
2013-06-14 10:39:00,56.1,53.2,29.67,East,79,2.0,8.0,90,0.00,,,1.36,Wunderground v.1.15,2013-06-14 14:39:00,
2013-06-14 10:44:00,56.2,53.0,29.67,NNE,28,3.0,8.0,89,0.00,,,1.36,Wunderground v.1.15,2013-06-14 14:44:00,
2013-06-14 10:49:00,56.4,53.2,29.67,North,349,2.0,8.0,89,0.00,,,1.36,Wunderground v.1.15,2013-06-14 14:49:00,
2013-06-14 10:55:00,56.4,53.5,29.68,North,360,6.0,11.0,90,0.00,,,1.36,Wunderground v.1.15,2013-06-14 14:55:00,
2013-06-14 11:00:00,56.6,53.4,29.68,NNE,26,2.0,5.0,89,0.00,,,1.36,Wunderground v.1.15,2013-06-14 15:00:00,
2013-06-14 11:05:00,56.6,53.4,29.68,North,360,5.0,10.0,89,0.00,,,1.36,Wunderground v.1.15,2013-06-14 15:05:00,
2013-06-14 11:10:00,56.7,53.5,29.68,NNE,15,2.0,5.0,89,0.00,,,1.36,Wunderground v.1.15,2013-06-14 15:10:00,
2013-06-14 11:15:00,56.6,53.4,29.69,NNE,12,8.0,10.0,89,0.00,,,1.36,Wunderground v.1.15,2013-06-14 15:15:00,
2013-06-14 11:20:00,56.4,52.9,29.69,NNE,28,4.0,6.0,88,0.00,,,1.36,Wunderground v.1.15,2013-06-14 15:20:00,
2013-06-14 11:25:00,56.4,52.9,29.69,North,360,6.0,9.0,88,0.00,,,1.36,Wunderground v.1.15,2013-06-14 15:25:00,
2013-06-14 11:30:00,56.4,52.6,29.69,NNE,23,7.0,9.0,87,0.00,,,1.36,Wunderground v.1.15,2013-06-14 15:30:00,
2013-06-14 11:35:00,56.3,52.5,29.69,ENE,65,1.0,9.0,87,0.00,,,1.36,Wunderground v.1.15,2013-06-14 15:35:00,
2013-06-14 11:40:00,56.4,52.6,29.70,NE,34,3.0,4.0,87,0.00,,,1.36,Wunderground v.1.15,2013-06-14 15:40:00,
2013-06-14 11:45:00,56.6,52.8,29.70,North,360,5.0,8.0,87,0.00,,,1.36,Wunderground v.1.15,2013-06-14 15:45:00,
2013-06-14 11:50:00,56.5,52.7,29.70,NNE,28,4.0,6.0,87,0.00,,,1.36,Wunderground v.1.15,2013-06-14 15:50:00,
2013-06-14 11:55:00,56.6,52.1,29.70,NNE,19,3.0,11.0,85,0.00,,,1.36,Wunderground v.1.15,2013-06-14 15:55:00,
2013-06-14 12:00:00,56.8,52.7,29.70,North,5,5.0,5.0,86,0.00,,,1.36,Wunderground v.1.15,2013-06-14 16:00:00,
2013-06-14 12:05:00,57.0,52.9,29.70,North,355,7.0,8.0,86,0.00,,,1.36,Wunderground v.1.15,2013-06-14 16:05:00,
2013-06-14 12:10:00,57.3,52.8,29.70,North,360,4.0,6.0,85,0.00,,,1.36,Wunderground v.1.15,2013-06-14 16:10:00,
2013-06-14 12:15:00,57.5,53.0,29.70,North,355,5.0,6.0,85,0.00,,,1.36,Wunderground v.1.15,2013-06-14 16:15:00,
2013-06-14 12:20:00,58.0,53.2,29.70,North,355,5.0,9.0,84,0.00,,,1.36,Wunderground v.1.15,2013-06-14 16:20:00,
2013-06-14 12:25:00,58.4,53.6,29.70,North,5,5.0,9.0,84,0.00,,,1.36,Wunderground v.1.15,2013-06-14 16:25:00,
2013-06-14 12:30:00,58.7,53.9,29.70,ENE,72,5.0,7.0,84,0.00,,,1.36,Wunderground v.1.15,2013-06-14 16:30:00,
2013-06-14 12:35:00,59.0,54.2,29.70,NE,51,1.0,7.0,84,0.00,,,1.36,Wunderground v.1.15,2013-06-14 16:35:00,
2013-06-14 12:40:00,59.0,53.2,29.69,North,9,3.0,8.0,81,0.00,,,1.36,Wunderground v.1.15,2013-06-14 16:40:00,
2013-06-14 12:45:00,59.5,54.0,29.69,North,9,2.0,8.0,82,0.00,,,1.36,Wunderground v.1.15,2013-06-14 16:45:00,
2013-06-14 12:50:00,59.8,54.0,29.69,NE,36,7.0,9.0,81,0.00,,,1.36,Wunderground v.1.15,2013-06-14 16:50:00,
2013-06-14 12:55:00,60.1,53.9,29.69,ENE,64,1.0,11.0,80,0.00,,,1.36,Wunderground v.1.15,2013-06-14 16:55:00,
2013-06-14 13:00:00,60.3,53.1,29.69,NNE,26,1.0,5.0,77,0.00,,,1.36,Wunderground v.1.15,2013-06-14 17:00:00,
2013-06-14 13:05:00,60.4,53.2,29.69,North,11,2.0,10.0,77,0.00,,,1.36,Wunderground v.1.15,2013-06-14 17:05:00,
2013-06-14 13:10:00,60.5,52.9,29.69,ENE,69,2.0,5.0,76,0.00,,,1.36,Wunderground v.1.15,2013-06-14 17:10:00,
2013-06-14 13:15:00,60.6,53.0,29.69,NNW,331,3.0,5.0,76,0.00,,,1.36,Wunderground v.1.15,2013-06-14 17:15:00,
2013-06-14 13:20:00,61.2,54.3,29.69,NW,326,7.0,7.0,78,0.00,,,1.36,Wunderground v.1.15,2013-06-14 17:20:00,
2013-06-14 13:25:00,61.6,54.3,29.69,NNW,339,8.0,10.0,77,0.00,,,1.36,Wunderground v.1.15,2013-06-14 17:25:00,
2013-06-14 13:30:00,61.8,53.4,29.68,NNW,329,6.0,7.0,74,0.00,,,1.36,Wunderground v.1.15,2013-06-14 17:30:00,
2013-06-14 13:35:00,62.1,54.8,29.68,NNW,331,6.0,9.0,77,0.00,,,1.36,Wunderground v.1.15,2013-06-14 17:35:00,
2013-06-14 13:40:00,62.5,55.5,29.69,NW,323,8.0,8.0,78,0.00,,,1.36,Wunderground v.1.15,2013-06-14 17:40:00,
2013-06-14 13:45:00,62.6,54.9,29.69,WNW,288,1.0,8.0,76,0.00,,,1.36,Wunderground v.1.15,2013-06-14 17:45:00,
2013-06-14 13:50:00,62.8,55.5,29.69,North,360,3.0,4.0,77,0.00,,,1.36,Wunderground v.1.15,2013-06-14 17:50:00,
2013-06-14 13:55:00,63.0,56.0,29.69,WNW,291,2.0,8.0,78,0.00,,,1.36,Wunderground v.1.15,2013-06-14 17:55:00,
2013-06-14 14:00:00,63.0,55.3,29.69,NNW,342,0.0,3.0,76,0.00,,,1.36,Wunderground v.1.15,2013-06-14 18:00:00,
2013-06-14 14:05:00,63.1,54.3,29.69,WNW,297,7.0,9.0,73,0.00,,,1.36,Wunderground v.1.15,2013-06-14 18:05:00,
2013-06-14 14:10:00,63.3,54.9,29.69,NNW,344,6.0,6.0,74,0.00,,,1.36,Wunderground v.1.15,2013-06-14 18:10:00,
2013-06-14 14:15:00,63.7,56.0,29.68,NNW,331,1.0,9.0,76,0.00,,,1.36,Wunderground v.1.15,2013-06-14 18:15:00,
2013-06-14 14:20:00,63.9,56.2,29.68,NNE,24,7.0,7.0,76,0.00,,,1.36,Wunderground v.1.15,2013-06-14 18:20:00,
2013-06-14 14:25:00,64.0,55.5,29.68,North,350,7.0,11.0,74,0.00,,,1.36,Wunderground v.1.15,2013-06-14 18:25:00,
2013-06-14 14:30:00,64.2,56.1,29.68,NW,304,10.0,10.0,75,0.00,,,1.36,Wunderground v.1.15,2013-06-14 18:30:00,
2013-06-14 14:35:00,64.5,56.4,29.68,NW,311,6.0,10.0,75,0.00,,,1.36,Wunderground v.1.15,2013-06-14 18:35:00,
2013-06-14 14:40:00,64.7,57.0,29.68,NW,321,7.0,9.0,76,0.00,,,1.36,Wunderground v.1.15,2013-06-14 18:40:00,
2013-06-14 14:45:00,64.7,56.6,29.68,West,279,5.0,9.0,75,0.00,,,1.36,Wunderground v.1.15,2013-06-14 18:45:00,
2013-06-14 14:50:00,64.8,56.7,29.68,NW,326,6.0,9.0,75,0.00,,,1.36,Wunderground v.1.15,2013-06-14 18:50:00,
2013-06-14 14:55:00,65.0,55.8,29.67,NNW,342,0.0,10.0,72,0.00,,,1.36,Wunderground v.1.15,2013-06-14 18:55:00,
2013-06-14 15:00:00,65.2,56.7,29.67,West,264,6.0,12.0,74,0.00,,,1.36,Wunderground v.1.15,2013-06-14 19:00:00,
2013-06-14 15:06:00,65.3,56.8,29.67,WNW,300,3.0,12.0,74,0.00,,,1.36,Wunderground v.1.15,2013-06-14 19:06:00,
2013-06-14 15:11:00,65.3,56.0,29.67,NW,315,0.0,5.0,72,0.00,,,1.36,Wunderground v.1.15,2013-06-14 19:11:00,
2013-06-14 15:16:00,65.4,55.7,29.67,NNW,329,9.0,14.0,71,0.00,,,1.36,Wunderground v.1.15,2013-06-14 19:16:00,
2013-06-14 15:21:00,65.7,56.4,29.67,North,349,3.0,5.0,72,0.00,,,1.36,Wunderground v.1.15,2013-06-14 19:21:00,
2013-06-14 15:26:00,65.9,57.0,29.67,NW,309,6.0,10.0,73,0.00,,,1.36,Wunderground v.1.15,2013-06-14 19:26:00,
2013-06-14 15:32:00,65.9,56.6,29.67,WSW,245,5.0,5.0,72,0.00,,,1.36,Wunderground v.1.15,2013-06-14 19:32:00,
2013-06-14 15:37:00,65.9,57.0,29.67,NW,312,3.0,8.0,73,0.00,,,1.36,Wunderground v.1.15,2013-06-14 19:37:00,
2013-06-14 15:42:00,66.0,57.1,29.67,WNW,287,6.0,10.0,73,0.00,,,1.36,Wunderground v.1.15,2013-06-14 19:42:00,
2013-06-14 15:47:00,66.0,57.1,29.67,West,269,3.0,10.0,73,0.00,,,1.36,Wunderground v.1.15,2013-06-14 19:47:00,
2013-06-14 15:52:00,65.9,57.4,29.66,WNW,287,0.0,7.0,74,0.00,,,1.36,Wunderground v.1.15,2013-06-14 19:52:00,
2013-06-14 15:57:00,65.8,56.9,29.67,West,273,3.0,7.0,73,0.00,,,1.36,Wunderground v.1.15,2013-06-14 19:57:00,
2013-06-14 16:02:00,65.8,56.9,29.66,NW,304,1.0,4.0,73,0.00,,,1.36,Wunderground v.1.15,2013-06-14 20:02:00,
2013-06-14 16:07:00,65.8,56.1,29.66,WNW,295,2.0,8.0,71,0.00,,,1.36,Wunderground v.1.15,2013-06-14 20:07:00,
2013-06-14 16:12:00,66.1,57.2,29.66,West,281,3.0,4.0,73,0.00,,,1.36,Wunderground v.1.15,2013-06-14 20:12:00,
2013-06-14 16:17:00,66.2,56.1,29.66,WNW,288,1.0,6.0,70,0.00,,,1.36,Wunderground v.1.15,2013-06-14 20:17:00,
2013-06-14 16:22:00,66.4,56.7,29.66,NW,324,0.0,7.0,71,0.00,,,1.36,Wunderground v.1.15,2013-06-14 20:22:00,
2013-06-14 16:27:00,66.7,56.6,29.66,West,281,2.0,10.0,70,0.00,,,1.36,Wunderground v.1.15,2013-06-14 20:27:00,
2013-06-14 16:32:00,67.0,56.9,29.66,NW,326,4.0,8.0,70,0.00,,,1.36,Wunderground v.1.15,2013-06-14 20:32:00,
2013-06-14 16:37:00,67.0,57.3,29.66,NW,325,8.0,9.0,71,0.00,,,1.36,Wunderground v.1.15,2013-06-14 20:37:00,
2013-06-14 16:42:00,67.1,55.8,29.66,North,5,4.0,8.0,67,0.00,,,1.36,Wunderground v.1.15,2013-06-14 20:42:00,
2013-06-14 16:47:00,67.3,56.0,29.65,NNW,339,4.0,8.0,67,0.00,,,1.36,Wunderground v.1.15,2013-06-14 20:47:00,
2013-06-14 16:52:00,67.4,56.9,29.66,North,355,1.0,7.0,69,0.00,,,1.36,Wunderground v.1.15,2013-06-14 20:52:00,
2013-06-14 16:57:00,67.3,56.8,29.66,WNW,301,1.0,7.0,69,0.00,,,1.36,Wunderground v.1.15,2013-06-14 20:57:00,
2013-06-14 17:02:00,67.1,57.0,29.65,NW,321,5.0,6.0,70,0.00,,,1.36,Wunderground v.1.15,2013-06-14 21:02:00,
2013-06-14 17:07:00,66.9,56.8,29.65,North,355,3.0,7.0,70,0.00,,,1.36,Wunderground v.1.15,2013-06-14 21:07:00,
2013-06-14 17:12:00,66.8,57.5,29.65,NW,309,10.0,10.0,72,0.00,,,1.36,Wunderground v.1.15,2013-06-14 21:12:00,
2013-06-14 17:17:00,66.7,57.0,29.65,NW,310,4.0,10.0,71,0.00,,,1.36,Wunderground v.1.15,2013-06-14 21:17:00,
2013-06-14 17:22:00,66.5,56.4,29.65,NW,317,1.0,4.0,70,0.00,,,1.36,Wunderground v.1.15,2013-06-14 21:22:00,
2013-06-14 17:27:00,66.5,56.0,29.66,WNW,287,3.0,9.0,69,0.00,,,1.36,Wunderground v.1.15,2013-06-14 21:27:00,
2013-06-14 17:32:00,66.6,56.1,29.66,NNW,338,1.0,5.0,69,0.00,,,1.36,Wunderground v.1.15,2013-06-14 21:32:00,
2013-06-14 17:37:00,66.7,56.2,29.66,NNW,327,2.0,5.0,69,0.00,,,1.36,Wunderground v.1.15,2013-06-14 21:37:00,
2013-06-14 17:42:00,66.8,56.3,29.66,North,349,2.0,5.0,69,0.00,,,1.36,Wunderground v.1.15,2013-06-14 21:42:00,
2013-06-14 17:47:00,66.8,56.3,29.66,North,355,1.0,5.0,69,0.00,,,1.36,Wunderground v.1.15,2013-06-14 21:47:00,
2013-06-14 17:53:00,66.8,56.3,29.66,North,360,6.0,6.0,69,0.00,,,1.36,Wunderground v.1.15,2013-06-14 21:53:00,
2013-06-14 17:58:00,67.0,56.1,29.66,NNW,331,0.0,6.0,68,0.00,,,1.36,Wunderground v.1.15,2013-06-14 21:58:00,
2013-06-14 18:03:00,67.0,55.7,29.66,NNW,330,0.0,2.0,67,0.00,,,1.36,Wunderground v.1.15,2013-06-14 22:03:00,
2013-06-14 18:08:00,66.9,55.2,29.66,NNW,331,3.0,3.0,66,0.00,,,1.36,Wunderground v.1.15,2013-06-14 22:08:00,
2013-06-14 18:13:00,66.8,55.5,29.66,NNW,327,4.0,5.0,67,0.00,,,1.36,Wunderground v.1.15,2013-06-14 22:13:00,
2013-06-14 18:18:00,66.7,55.8,29.66,NW,315,2.0,5.0,68,0.00,,,1.36,Wunderground v.1.15,2013-06-14 22:18:00,
2013-06-14 18:23:00,66.6,55.3,29.66,NNW,346,4.0,5.0,67,0.00,,,1.36,Wunderground v.1.15,2013-06-14 22:23:00,
2013-06-14 18:28:00,66.5,55.6,29.66,NW,321,5.0,5.0,68,0.00,,,1.36,Wunderground v.1.15,2013-06-14 22:28:00,
2013-06-14 18:33:00,66.5,56.0,29.66,NW,304,2.0,5.0,69,0.00,,,1.36,Wunderground v.1.15,2013-06-14 22:33:00,
2013-06-14 18:38:00,66.5,56.0,29.66,NW,315,1.0,5.0,69,0.00,,,1.36,Wunderground v.1.15,2013-06-14 22:38:00,
2013-06-14 18:43:00,66.5,56.0,29.66,NW,309,3.0,6.0,69,0.00,,,1.36,Wunderground v.1.15,2013-06-14 22:43:00,
2013-06-14 18:48:00,66.3,55.8,29.67,WNW,290,2.0,6.0,69,0.00,,,1.36,Wunderground v.1.15,2013-06-14 22:48:00,
2013-06-14 18:53:00,66.3,55.8,29.67,West,281,2.0,5.0,69,0.00,,,1.36,Wunderground v.1.15,2013-06-14 22:53:00,
2013-06-14 18:58:00,66.2,55.7,29.66,WNW,300,0.0,5.0,69,0.00,,,1.36,Wunderground v.1.15,2013-06-14 22:58:00,
2013-06-14 19:03:00,66.0,55.5,29.66,WNW,287,1.0,3.0,69,0.00,,,1.36,Wunderground v.1.15,2013-06-14 23:03:00,
2013-06-14 19:08:00,65.9,55.4,29.67,WNW,303,1.0,5.0,69,0.00,,,1.36,Wunderground v.1.15,2013-06-14 23:08:00,
2013-06-14 19:13:00,65.8,55.3,29.67,WNW,286,3.0,6.0,69,0.00,,,1.36,Wunderground v.1.15,2013-06-14 23:13:00,
2013-06-14 19:18:00,65.7,55.2,29.67,WNW,285,2.0,6.0,69,0.00,,,1.36,Wunderground v.1.15,2013-06-14 23:18:00,
2013-06-14 19:23:00,65.6,55.2,29.67,WNW,284,4.0,5.0,69,0.00,,,1.36,Wunderground v.1.15,2013-06-14 23:23:00,
2013-06-14 19:28:00,65.5,55.1,29.67,WNW,284,1.0,5.0,69,0.00,,,1.36,Wunderground v.1.15,2013-06-14 23:28:00,
2013-06-14 19:33:00,65.4,55.0,29.66,WNW,284,2.0,2.0,69,0.00,,,1.36,Wunderground v.1.15,2013-06-14 23:33:00,
2013-06-14 19:38:00,65.3,54.9,29.66,West,272,0.0,5.0,69,0.00,,,1.36,Wunderground v.1.15,2013-06-14 23:38:00,
2013-06-14 19:43:00,65.3,55.3,29.67,West,272,0.0,3.0,70,0.00,,,1.36,Wunderground v.1.15,2013-06-14 23:43:00,
2013-06-14 19:48:00,65.2,55.2,29.67,West,272,0.0,3.0,70,0.00,,,1.36,Wunderground v.1.15,2013-06-14 23:48:00,
2013-06-14 19:53:00,65.1,55.5,29.67,West,272,0.0,1.0,71,0.00,,,1.36,Wunderground v.1.15,2013-06-14 23:53:00,
2013-06-14 19:58:00,64.9,55.3,29.67,West,272,0.0,1.0,71,0.00,,,1.36,Wunderground v.1.15,2013-06-14 23:58:00,
2013-06-14 20:03:00,64.8,55.2,29.67,West,272,0.0,0.0,71,0.00,,,1.36,Wunderground v.1.15,2013-06-15 00:03:00,
2013-06-14 20:08:00,64.7,55.1,29.67,West,273,0.0,0.0,71,0.00,,,1.36,Wunderground v.1.15,2013-06-15 00:08:00,
2013-06-14 20:13:00,64.6,55.4,29.67,West,272,0.0,0.0,72,0.00,,,1.36,Wunderground v.1.15,2013-06-15 00:13:00,
2013-06-14 20:18:00,64.4,55.2,29.67,West,272,0.0,0.0,72,0.00,,,1.36,Wunderground v.1.15,2013-06-15 00:18:00,
2013-06-14 20:23:00,64.3,55.5,29.67,West,273,0.0,0.0,73,0.00,,,1.36,Wunderground v.1.15,2013-06-15 00:23:00,
2013-06-14 20:28:00,64.2,55.4,29.67,West,273,0.0,2.0,73,0.00,,,1.36,Wunderground v.1.15,2013-06-15 00:28:00,
2013-06-14 20:33:00,64.1,55.6,29.67,West,272,0.0,0.0,74,0.00,,,1.36,Wunderground v.1.15,2013-06-15 00:33:00,
2013-06-14 20:38:00,64.0,55.5,29.68,West,272,0.0,0.0,74,0.00,,,1.36,Wunderground v.1.15,2013-06-15 00:38:00,
2013-06-14 20:43:00,63.9,55.4,29.68,West,272,0.0,0.0,74,0.00,,,1.36,Wunderground v.1.15,2013-06-15 00:43:00,
2013-06-14 20:48:00,63.8,55.7,29.68,West,272,0.0,0.0,75,0.00,,,1.36,Wunderground v.1.15,2013-06-15 00:48:00,
2013-06-14 20:53:00,63.7,56.0,29.68,West,272,0.0,0.0,76,0.00,,,1.36,Wunderground v.1.15,2013-06-15 00:53:00,
2013-06-14 20:58:00,63.6,55.9,29.68,West,272,0.0,0.0,76,0.00,,,1.36,Wunderground v.1.15,2013-06-15 00:58:00,
2013-06-14 21:03:00,63.5,55.8,29.68,West,272,0.0,0.0,76,0.00,,,1.36,Wunderground v.1.15,2013-06-15 01:03:00,
2013-06-14 21:08:00,63.4,56.1,29.69,West,272,0.0,0.0,77,0.00,,,1.36,Wunderground v.1.15,2013-06-15 01:08:00,
2013-06-14 21:13:00,63.2,55.9,29.69,West,272,0.0,0.0,77,0.00,,,1.36,Wunderground v.1.15,2013-06-15 01:13:00,
2013-06-14 21:18:00,63.1,55.8,29.69,West,272,0.0,1.0,77,0.00,,,1.36,Wunderground v.1.15,2013-06-15 01:18:00,
2013-06-14 21:23:00,62.9,55.6,29.69,West,272,0.0,0.0,77,0.00,,,1.36,Wunderground v.1.15,2013-06-15 01:23:00,
2013-06-14 21:28:00,62.7,55.7,29.69,West,272,0.0,0.0,78,0.00,,,1.36,Wunderground v.1.15,2013-06-15 01:28:00,
2013-06-14 21:33:00,62.6,55.6,29.69,West,272,0.0,0.0,78,0.00,,,1.36,Wunderground v.1.15,2013-06-15 01:33:00,
2013-06-14 21:38:00,62.4,55.4,29.69,West,272,0.0,0.0,78,0.00,,,1.36,Wunderground v.1.15,2013-06-15 01:38:00,
2013-06-14 21:43:00,62.3,55.4,29.69,West,272,0.0,0.0,78,0.00,,,1.36,Wunderground v.1.15,2013-06-15 01:43:00,
2013-06-14 21:48:00,62.1,55.2,29.69,West,272,0.0,0.0,78,0.00,,,1.36,Wunderground v.1.15,2013-06-15 01:48:00,
2013-06-14 21:53:00,62.0,55.4,29.69,West,272,0.0,0.0,79,0.00,,,1.36,Wunderground v.1.15,2013-06-15 01:53:00,
2013-06-14 21:58:00,61.8,55.2,29.69,West,272,2.0,2.0,79,0.00,,,1.36,Wunderground v.1.15,2013-06-15 01:58:00,
2013-06-14 22:03:00,61.7,55.1,29.69,West,272,0.0,3.0,79,0.00,,,1.36,Wunderground v.1.15,2013-06-15 02:03:00,
2013-06-14 22:08:00,61.5,54.9,29.69,WNW,302,3.0,5.0,79,0.00,,,1.36,Wunderground v.1.15,2013-06-15 02:08:00,
2013-06-14 22:13:00,61.4,54.8,29.69,NW,318,2.0,3.0,79,0.00,,,1.36,Wunderground v.1.15,2013-06-15 02:13:00,
2013-06-14 22:18:00,61.2,54.6,29.69,NW,314,0.0,3.0,79,0.00,,,1.36,Wunderground v.1.15,2013-06-15 02:18:00,
2013-06-14 22:23:00,61.1,54.5,29.69,NW,315,2.0,3.0,79,0.00,,,1.36,Wunderground v.1.15,2013-06-15 02:23:00,
2013-06-14 22:28:00,61.0,54.4,29.69,WNW,292,2.0,6.0,79,0.00,,,1.36,Wunderground v.1.15,2013-06-15 02:28:00,
2013-06-14 22:33:00,60.9,54.3,29.69,NW,311,3.0,6.0,79,0.00,,,1.36,Wunderground v.1.15,2013-06-15 02:33:00,
2013-06-14 22:38:00,60.7,54.1,29.70,WNW,290,4.0,6.0,79,0.00,,,1.36,Wunderground v.1.15,2013-06-15 02:38:00,
2013-06-14 22:43:00,60.7,54.1,29.69,NW,318,3.0,7.0,79,0.00,,,1.36,Wunderground v.1.15,2013-06-15 02:43:00,
2013-06-14 22:48:00,60.6,54.0,29.70,NW,318,1.0,7.0,79,0.00,,,1.36,Wunderground v.1.15,2013-06-15 02:48:00,
2013-06-14 22:53:00,60.5,54.0,29.70,NW,309,3.0,8.0,79,0.00,,,1.36,Wunderground v.1.15,2013-06-15 02:53:00,
2013-06-14 22:58:00,60.5,54.0,29.70,NW,313,1.0,8.0,79,0.00,,,1.36,Wunderground v.1.15,2013-06-15 02:58:00,
2013-06-14 23:03:00,60.5,54.0,29.70,NNW,342,5.0,7.0,79,0.00,,,1.36,Wunderground v.1.15,2013-06-15 03:03:00,
2013-06-14 23:08:00,60.5,54.0,29.70,NW,318,5.0,8.0,79,0.00,,,1.36,Wunderground v.1.15,2013-06-15 03:08:00,
2013-06-14 23:13:00,60.6,54.4,29.70,NW,310,7.0,14.0,80,0.00,,,1.36,Wunderground v.1.15,2013-06-15 03:13:00,
2013-06-14 23:18:00,60.7,54.5,29.70,NW,311,5.0,14.0,80,0.00,,,1.36,Wunderground v.1.15,2013-06-15 03:18:00,
2013-06-14 23:23:00,60.7,54.5,29.71,NW,305,7.0,8.0,80,0.00,,,1.36,Wunderground v.1.15,2013-06-15 03:23:00,
2013-06-14 23:28:00,60.8,54.2,29.71,WNW,295,9.0,10.0,79,0.00,,,1.36,Wunderground v.1.15,2013-06-15 03:28:00,
2013-06-14 23:33:00,60.8,54.2,29.71,WNW,299,4.0,8.0,79,0.00,,,1.36,Wunderground v.1.15,2013-06-15 03:33:00,
2013-06-14 23:38:00,60.8,54.2,29.71,NW,323,1.0,9.0,79,0.00,,,1.36,Wunderground v.1.15,2013-06-15 03:38:00,
2013-06-14 23:43:00,60.9,54.3,29.71,NW,316,6.0,8.0,79,0.00,,,1.36,Wunderground v.1.15,2013-06-15 03:43:00,
2013-06-14 23:48:00,60.9,54.3,29.72,WNW,298,4.0,8.0,79,0.00,,,1.36,Wunderground v.1.15,2013-06-15 03:48:00,
2013-06-14 23:53:00,60.9,54.3,29.72,NW,317,5.0,11.0,79,0.00,,,1.36,Wunderground v.1.15,2013-06-15 03:53:00,
2013-06-14 23:59:00,60.9,54.3,29.72,NNW,346,5.0,11.0,79,0.00,,,1.36,Wunderground v.1.15,2013-06-15 03:59:00,